Beech Mountain, North Carolina
Current Conditions -  °F | °C
As of 10:35 AM on Thursday 23 Oct 2014 (Local Time) from KTNB Reporting Station
Clear Clear  
Wind Chill: 38°   Ceiling: Unl
Heat Index: 44°   Visibility: 10mi
Dew Point: 33°   Wind: 13mph
Humidity: 67%   Direction: 290°WNW
Pressure: 30.13"   Gusts: 18mph
Location:  36.1797°N, 81.8424°W
Report Text: KTNB 231435Z AUTO 29011G16KT 10SM CLR 07/01 A3013 RMK AO2 T00660008
Loading
Personal Weather Stations






























Interactive Weather Map New forecast layout! Learn more

10-Day Weather Forecast

Advertisements
Track Severe Weather on mobile